createdAt,value
2023-02-25T00:01:09.499Z,81.35
2023-02-25T00:03:36.603Z,81.79
2023-02-25T00:06:05.300Z,82.07
2023-02-25T00:08:32.292Z,81.61
2023-02-25T00:11:02.995Z,80.73
2023-02-25T00:13:29.876Z,80.49
2023-02-25T00:15:58.147Z,81.23
2023-02-25T00:18:26.451Z,80.23
2023-02-25T00:20:53.040Z,80.18
2023-02-25T00:23:20.086Z,79.92
2023-02-25T00:25:47.745Z,80.09
2023-02-25T00:28:15.676Z,80.32
2023-02-25T00:30:42.746Z,80.28
2023-02-25T00:33:11.461Z,79.73
2023-02-25T00:35:41.320Z,79.71
2023-02-25T00:38:15.615Z,79.89
2023-02-25T00:40:44.999Z,80.22
2023-02-25T00:43:11.636Z,79.88
2023-02-25T00:45:41.146Z,79.71
2023-02-25T00:48:08.183Z,79.79
2023-02-25T00:50:36.037Z,79.72
2023-02-25T00:53:02.565Z,79.46
2023-02-25T00:55:33.549Z,79.75
2023-02-25T00:58:01.379Z,80.10
2023-02-25T01:00:28.919Z,79.70
2023-02-25T01:02:57.618Z,79.76
2023-02-25T01:05:24.398Z,79.83
2023-02-25T01:07:52.206Z,79.59
2023-02-25T01:10:18.992Z,79.74
2023-02-25T01:12:45.840Z,80.10
2023-02-25T01:15:13.393Z,79.52
2023-02-25T01:17:39.966Z,79.59
2023-02-25T01:20:11.337Z,79.03
2023-02-25T01:22:41.574Z,79.18
2023-02-25T01:25:13.446Z,79.38
2023-02-25T01:27:40.012Z,78.90
2023-02-25T01:30:08.129Z,79.02
2023-02-25T01:32:35.333Z,80.20
2023-02-25T01:35:02.366Z,79.71
2023-02-25T01:37:30.197Z,79.47
2023-02-25T01:39:56.967Z,78.58
2023-02-25T01:42:24.011Z,78.82
2023-02-25T01:45:18.515Z,78.97
2023-02-25T01:47:50.240Z,78.60
2023-02-25T01:50:21.279Z,78.36
2023-02-25T01:52:50.895Z,78.57
2023-02-25T01:55:18.067Z,78.05
2023-02-25T01:57:44.922Z,78.46
2023-02-25T02:00:16.253Z,79.02
2023-02-25T02:02:46.551Z,78.73
2023-02-25T02:05:14.217Z,78.29
2023-02-25T02:07:42.287Z,78.04
2023-02-25T02:10:09.582Z,77.87
2023-02-25T02:12:39.684Z,78.44
2023-02-25T02:15:10.158Z,77.88
2023-02-25T02:17:48.098Z,78.32
2023-02-25T02:20:24.121Z,78.14
2023-02-25T02:23:27.013Z,78.19
2023-02-25T02:26:33.268Z,78.76
2023-02-25T02:29:22.109Z,78.33
2023-02-25T02:32:01.440Z,77.88
2023-02-25T02:34:46.700Z,77.99
2023-02-25T02:37:19.004Z,77.53
2023-02-25T02:40:05.654Z,79.00
2023-02-25T02:42:56.286Z,78.76
2023-02-25T02:45:34.587Z,78.69
2023-02-25T02:48:09.796Z,79.17
2023-02-25T02:50:41.238Z,78.60
2023-02-25T02:53:14.352Z,78.18
2023-02-25T02:55:45.842Z,78.47
2023-02-25T02:58:25.346Z,78.05
2023-02-25T03:00:58.510Z,78.45
2023-02-25T03:03:36.570Z,78.48
2023-02-25T03:06:11.086Z,78.88
2023-02-25T03:08:53.754Z,77.87
2023-02-25T03:11:20.957Z,78.16
2023-02-25T03:13:47.927Z,78.14
2023-02-25T03:16:24.699Z,78.75
2023-02-25T03:18:59.213Z,79.44
2023-02-25T03:21:35.732Z,79.17
2023-02-25T03:24:05.065Z,79.46
2023-02-25T03:26:33.851Z,78.20
2023-02-25T03:29:03.056Z,78.58
2023-02-25T03:31:40.864Z,78.74
2023-02-25T03:34:17.695Z,78.26
2023-02-25T03:36:49.642Z,78.54
2023-02-25T03:39:20.761Z,78.88
2023-02-25T03:41:53.612Z,78.61
2023-02-25T03:44:31.788Z,78.64
2023-02-25T03:46:59.711Z,78.61
2023-02-25T03:49:35.557Z,79.31
2023-02-25T03:52:07.442Z,79.26
2023-02-25T03:54:33.998Z,79.33
2023-02-25T03:57:02.040Z,79.08
2023-02-25T03:59:28.907Z,79.20
2023-02-25T04:01:58.449Z,78.96
2023-02-25T04:04:25.065Z,78.44
2023-02-25T04:06:52.356Z,78.68
2023-02-25T04:09:19.390Z,78.79
2023-02-25T04:11:46.410Z,78.35
2023-02-25T04:14:12.921Z,79.33
2023-02-25T04:16:40.429Z,78.28
2023-02-25T04:19:07.379Z,78.22
2023-02-25T04:21:36.306Z,78.43
2023-02-25T04:24:05.545Z,78.51
2023-02-25T04:26:33.055Z,77.63
2023-02-25T04:28:59.568Z,78.35
2023-02-25T04:31:26.525Z,79.23
2023-02-25T04:33:53.237Z,78.31
2023-02-25T04:36:46.895Z,79.57
2023-02-25T04:39:15.687Z,78.76
2023-02-25T04:41:42.366Z,78.46
2023-02-25T04:44:09.439Z,78.43
2023-02-25T04:46:39.485Z,78.11
2023-02-25T04:49:07.806Z,78.42
2023-02-25T04:51:34.524Z,77.77
2023-02-25T04:54:01.051Z,78.58
2023-02-25T04:56:27.627Z,77.87
2023-02-25T04:58:54.175Z,78.75
2023-02-25T05:01:20.721Z,79.45
2023-02-25T05:03:47.369Z,78.79
2023-02-25T05:06:13.859Z,79.52
2023-02-25T05:08:40.930Z,78.83
2023-02-25T05:11:07.429Z,78.42
2023-02-25T05:13:34.011Z,78.83
2023-02-25T05:16:05.763Z,77.77
2023-02-25T05:18:32.266Z,78.47
2023-02-25T05:20:59.735Z,77.52
2023-02-25T05:23:26.405Z,79.24
2023-02-25T05:25:52.934Z,78.20
2023-02-25T05:28:19.669Z,77.52
2023-02-25T05:30:46.170Z,77.82
2023-02-25T05:33:14.555Z,78.25
2023-02-25T05:35:41.103Z,78.13
2023-02-25T05:38:07.707Z,78.53
2023-02-25T05:40:36.193Z,78.48
2023-02-25T05:43:02.693Z,77.72
2023-02-25T05:45:29.352Z,78.17
2023-02-25T05:47:56.010Z,77.52
2023-02-25T05:50:22.547Z,76.88
2023-02-25T05:52:49.132Z,77.21
2023-02-25T05:55:18.533Z,76.51
2023-02-25T05:57:45.043Z,76.59
2023-02-25T06:00:14.818Z,78.44
2023-02-25T06:02:42.091Z,78.94
2023-02-25T06:05:08.708Z,77.79
2023-02-25T06:07:35.328Z,76.97
2023-02-25T06:10:02.076Z,78.49
2023-02-25T06:12:30.535Z,78.32
2023-02-25T06:14:57.208Z,79.28
2023-02-25T06:17:26.628Z,77.97
2023-02-25T06:19:53.214Z,77.47
2023-02-25T06:22:20.790Z,78.36
2023-02-25T06:24:47.582Z,77.36
2023-02-25T06:27:15.155Z,77.47
2023-02-25T06:29:42.040Z,77.58
2023-02-25T06:32:12.292Z,77.83
2023-02-25T06:34:39.774Z,77.88
2023-02-25T06:37:07.441Z,78.16
2023-02-25T06:39:34.187Z,77.31
2023-02-25T06:42:01.072Z,77.91
2023-02-25T06:44:29.191Z,77.32
2023-02-25T06:46:55.998Z,78.25
2023-02-25T06:49:23.806Z,78.64
2023-02-25T06:51:50.809Z,77.22
2023-02-25T06:54:18.199Z,77.76
2023-02-25T06:56:45.230Z,78.02
2023-02-25T06:59:12.030Z,77.03
2023-02-25T07:01:38.840Z,76.76
2023-02-25T07:04:05.505Z,76.39
2023-02-25T07:06:32.107Z,76.09
2023-02-25T07:08:58.657Z,75.68
2023-02-25T07:11:25.141Z,76.56
2023-02-25T07:13:51.777Z,76.05
2023-02-25T07:16:19.415Z,76.74
2023-02-25T07:18:47.053Z,77.10
2023-02-25T07:21:14.705Z,75.33
2023-02-25T07:23:42.399Z,74.84
2023-02-25T07:26:12.291Z,73.70
2023-02-25T07:28:39.388Z,74.71
2023-02-25T07:31:19.497Z,74.04
2023-02-25T07:33:46.859Z,75.42
2023-02-25T07:36:15.018Z,73.92
2023-02-25T07:38:42.078Z,73.27
2023-02-25T07:41:14.336Z,75.11
2023-02-25T07:43:41.768Z,73.00
2023-02-25T07:46:09.165Z,72.86
2023-02-25T07:48:36.359Z,70.45
2023-02-25T07:51:11.148Z,70.88
2023-02-25T07:53:38.327Z,72.11
2023-02-25T07:56:06.973Z,71.31
2023-02-25T07:58:33.741Z,70.77
2023-02-25T08:01:00.452Z,70.45
2023-02-25T08:03:27.362Z,70.78
2023-02-25T08:05:54.387Z,70.27
2023-02-25T08:08:22.039Z,70.62
2023-02-25T08:10:48.861Z,70.80
2023-02-25T08:13:15.635Z,70.17
2023-02-25T08:15:43.733Z,69.42
2023-02-25T08:18:10.939Z,70.05
2023-02-25T08:20:38.341Z,69.88
2023-02-25T08:23:06.512Z,68.78
2023-02-25T08:25:33.160Z,69.82
2023-02-25T08:28:01.037Z,69.12
2023-02-25T08:30:27.928Z,68.28
2023-02-25T08:32:54.508Z,69.07
2023-02-25T08:35:21.339Z,69.43
2023-02-25T08:37:48.583Z,68.57
2023-02-25T08:40:15.163Z,68.41
2023-02-25T08:42:41.727Z,67.97
2023-02-25T08:45:08.720Z,68.86
2023-02-25T08:47:35.642Z,69.45
2023-02-25T08:50:02.267Z,69.33
2023-02-25T08:52:33.731Z,69.79
2023-02-25T08:55:04.350Z,67.69
2023-02-25T08:57:31.700Z,68.72
2023-02-25T08:59:58.316Z,67.93
2023-02-25T09:02:24.880Z,68.43
2023-02-25T09:04:51.683Z,68.49
2023-02-25T09:07:20.295Z,67.94
2023-02-25T09:09:46.922Z,68.81
2023-02-25T09:12:13.637Z,68.11
2023-02-25T09:14:40.149Z,66.75
2023-02-25T09:17:07.128Z,67.48
2023-02-25T09:19:33.910Z,67.66
2023-02-25T09:22:01.420Z,67.72
2023-02-25T09:24:29.972Z,67.35
2023-02-25T09:26:56.554Z,66.74
2023-02-25T09:29:23.045Z,66.57
2023-02-25T09:31:49.862Z,67.07
2023-02-25T09:34:16.587Z,66.38
2023-02-25T09:36:43.147Z,67.04
2023-02-25T09:39:10.327Z,67.59
2023-02-25T09:42:00.749Z,66.91
2023-02-25T09:44:31.642Z,66.84
2023-02-25T09:47:10.310Z,66.87
2023-02-25T09:49:41.592Z,67.03
2023-02-25T09:52:18.553Z,66.51
2023-02-25T09:54:52.680Z,64.27
2023-02-25T09:57:21.849Z,64.64
2023-02-25T09:59:51.948Z,64.91
2023-02-25T10:02:39.088Z,64.00
2023-02-25T10:05:30.195Z,63.53
2023-02-25T10:08:10.010Z,64.39
2023-02-25T10:10:49.712Z,62.54
2023-02-25T10:13:44.660Z,61.78
2023-02-25T10:16:36.007Z,63.18
2023-02-25T10:19:15.155Z,62.20
2023-02-25T10:21:44.502Z,62.50
2023-02-25T10:24:25.973Z,63.25
2023-02-25T10:27:02.989Z,61.62
2023-02-25T10:29:52.578Z,60.68
2023-02-25T10:32:31.316Z,61.86
2023-02-25T10:35:01.388Z,61.79
2023-02-25T10:37:33.553Z,61.90
2023-02-25T10:40:04.486Z,59.66
2023-02-25T10:42:31.495Z,61.27
2023-02-25T10:45:08.121Z,59.03
2023-02-25T10:47:41.437Z,58.78
2023-02-25T10:50:13.967Z,59.54
2023-02-25T10:52:54.398Z,59.99
2023-02-25T10:55:52.114Z,57.76
2023-02-25T10:58:40.885Z,59.27
2023-02-25T11:01:15.412Z,59.77
2023-02-25T11:03:51.861Z,59.00
2023-02-25T11:06:27.847Z,59.19
2023-02-25T11:08:58.523Z,57.39
2023-02-25T11:11:38.876Z,55.82
2023-02-25T11:14:16.540Z,54.78
2023-02-25T11:16:45.453Z,54.89
2023-02-25T11:19:24.304Z,55.86
2023-02-25T11:21:51.885Z,57.01
2023-02-25T11:24:28.373Z,56.21
2023-02-25T11:26:55.159Z,57.19
2023-02-25T11:29:29.211Z,58.57
2023-02-25T11:32:12.367Z,58.34
2023-02-25T11:35:10.259Z,58.93
2023-02-25T11:37:45.295Z,57.84
2023-02-25T11:40:30.051Z,57.48
2023-02-25T11:43:05.702Z,57.48
2023-02-25T11:45:38.803Z,57.31
2023-02-25T11:48:17.031Z,56.79
2023-02-25T11:51:28.693Z,57.00
2023-02-25T11:54:01.064Z,57.09
2023-02-25T11:56:35.546Z,58.79
2023-02-25T11:59:16.760Z,57.79
2023-02-25T12:02:14.900Z,57.36
2023-02-25T12:04:59.743Z,58.27
2023-02-25T12:07:35.194Z,56.15
2023-02-25T12:10:23.476Z,58.66
2023-02-25T12:13:17.415Z,57.11
2023-02-25T12:16:21.925Z,55.45
2023-02-25T12:18:50.073Z,57.01
2023-02-25T12:21:53.388Z,57.60
2023-02-25T12:24:43.931Z,56.55
2023-02-25T12:27:32.156Z,55.94
2023-02-25T12:30:27.446Z,55.91
2023-02-25T12:33:26.445Z,55.38
2023-02-25T12:36:03.878Z,54.90
2023-02-25T12:38:49.754Z,56.18
2023-02-25T12:41:37.924Z,56.73
2023-02-25T12:44:29.144Z,57.70
2023-02-25T12:47:23.142Z,55.98
2023-02-25T12:50:08.052Z,56.83
2023-02-25T12:52:46.119Z,57.17
2023-02-25T12:55:38.382Z,54.61
2023-02-25T12:58:27.748Z,58.04
2023-02-25T13:01:12.874Z,56.61
2023-02-25T13:04:18.456Z,54.83
2023-02-25T13:07:14.486Z,53.20
2023-02-25T13:10:05.524Z,54.22
2023-02-25T13:13:02.810Z,52.58
2023-02-25T13:15:54.427Z,52.32
2023-02-25T13:18:58.292Z,50.49
2023-02-25T13:21:38.553Z,53.10
2023-02-25T13:24:23.867Z,54.05
2023-02-25T13:27:05.514Z,52.81
2023-02-25T13:29:42.916Z,53.54
2023-02-25T13:32:18.219Z,53.79
2023-02-25T13:34:49.029Z,52.28
2023-02-25T13:37:28.065Z,50.76
2023-02-25T13:40:17.097Z,50.39
2023-02-25T13:42:53.409Z,51.50
2023-02-25T13:45:40.266Z,51.30
2023-02-25T13:48:43.102Z,52.07
2023-02-25T13:51:24.598Z,52.77
2023-02-25T13:54:39.181Z,52.20
2023-02-25T13:57:32.029Z,51.83
2023-02-25T14:00:14.545Z,51.24
2023-02-25T14:02:59.876Z,51.00
2023-02-25T14:06:00.481Z,51.56
2023-02-25T14:08:50.970Z,51.80
2023-02-25T14:11:44.983Z,51.54
2023-02-25T14:14:23.268Z,51.51
2023-02-25T14:17:39.734Z,51.60
2023-02-25T14:20:37.318Z,53.65
2023-02-25T14:23:03.761Z,53.46
2023-02-25T14:25:58.173Z,53.25
2023-02-25T14:28:45.854Z,53.34
2023-02-25T14:31:18.956Z,53.24
2023-02-25T14:34:24.641Z,52.99
2023-02-25T14:37:17.012Z,54.65
2023-02-25T14:40:07.726Z,53.49
2023-02-25T14:42:49.203Z,56.14
2023-02-25T14:45:23.952Z,55.02
2023-02-25T14:47:56.385Z,55.28
2023-02-25T14:50:30.797Z,56.09
2023-02-25T14:53:09.100Z,55.40
2023-02-25T14:55:44.609Z,55.39
2023-02-25T14:58:51.018Z,56.15
2023-02-25T15:01:26.844Z,55.49
2023-02-25T15:04:16.316Z,56.95
2023-02-25T15:06:58.330Z,55.55
2023-02-25T15:09:44.050Z,56.41
2023-02-25T15:12:21.802Z,56.61
2023-02-25T15:15:22.370Z,56.70
2023-02-25T15:18:45.965Z,56.19
2023-02-25T15:21:38.280Z,57.90
2023-02-25T15:24:11.424Z,58.10
2023-02-25T15:26:40.262Z,58.11
2023-02-25T15:29:38.938Z,58.00
2023-02-25T15:32:27.105Z,56.74
2023-02-25T15:35:00.829Z,58.35
2023-02-25T15:37:50.858Z,57.55
2023-02-25T15:40:17.372Z,56.78
2023-02-25T15:43:09.693Z,56.88
2023-02-25T15:45:38.100Z,57.51
2023-02-25T15:48:07.619Z,59.15
2023-02-25T15:50:43.234Z,57.06
2023-02-25T15:53:11.331Z,58.28
2023-02-25T15:55:40.972Z,57.93
2023-02-25T15:58:25.445Z,60.04
2023-02-25T16:01:22.521Z,61.00
2023-02-25T16:03:49.323Z,60.65
2023-02-25T16:06:29.367Z,59.08
2023-02-25T16:09:12.151Z,59.83
2023-02-25T16:11:57.313Z,60.57
2023-02-25T16:14:36.807Z,58.87
2023-02-25T16:17:15.890Z,59.12
2023-02-25T16:19:43.971Z,59.30
2023-02-25T16:22:21.249Z,59.23
2023-02-25T16:24:51.170Z,59.36
2023-02-25T16:27:43.873Z,59.87
2023-02-25T16:30:33.321Z,61.08
2023-02-25T16:33:12.150Z,61.91
2023-02-25T16:35:47.564Z,61.15
2023-02-25T16:38:28.117Z,62.02
2023-02-25T16:40:54.837Z,64.52
2023-02-25T16:43:27.591Z,64.59
2023-02-25T16:46:05.768Z,65.56
2023-02-25T16:48:36.149Z,65.32
2023-02-25T16:51:11.557Z,67.08
2023-02-25T16:53:43.846Z,66.23
2023-02-25T16:56:19.889Z,66.28
2023-02-25T16:59:04.890Z,65.65
2023-02-25T17:01:33.757Z,65.58
2023-02-25T17:04:08.687Z,66.03
2023-02-25T17:06:35.652Z,66.00
2023-02-25T17:09:02.277Z,66.58
2023-02-25T17:11:29.195Z,66.84
2023-02-25T17:13:58.820Z,66.84
2023-02-25T17:16:30.911Z,67.16
2023-02-25T17:19:03.856Z,67.70
2023-02-25T17:21:39.162Z,67.81
2023-02-25T17:24:11.562Z,68.18
2023-02-25T17:26:41.622Z,68.05
2023-02-25T17:29:14.597Z,67.80
2023-02-25T17:31:50.831Z,68.15
2023-02-25T17:34:28.786Z,68.39
2023-02-25T17:36:58.823Z,68.41
2023-02-25T17:39:26.313Z,69.28
2023-02-25T17:41:53.343Z,68.85
2023-02-25T17:44:45.010Z,68.29
2023-02-25T17:47:19.009Z,69.92
2023-02-25T17:49:45.834Z,71.56
2023-02-25T17:52:22.745Z,71.22
2023-02-25T17:55:23.777Z,70.84
2023-02-25T17:57:53.200Z,70.14
2023-02-25T18:00:37.877Z,69.67
2023-02-25T18:03:21.851Z,71.58
2023-02-25T18:05:49.583Z,71.09
2023-02-25T18:08:21.236Z,70.23
2023-02-25T18:11:01.935Z,71.60
2023-02-25T18:13:35.232Z,72.12
2023-02-25T18:16:35.295Z,71.63
2023-02-25T18:19:02.481Z,71.93
2023-02-25T18:21:29.262Z,70.70
2023-02-25T18:23:56.449Z,69.64
2023-02-25T18:26:25.496Z,71.85
2023-02-25T18:28:55.123Z,72.37
2023-02-25T18:31:22.397Z,71.68
2023-02-25T18:33:49.315Z,71.23
2023-02-25T18:36:27.591Z,71.36
2023-02-25T18:38:57.243Z,71.36
2023-02-25T18:41:24.020Z,70.45
2023-02-25T18:43:51.788Z,69.92
2023-02-25T18:46:18.337Z,69.17
2023-02-25T18:48:44.913Z,68.72
2023-02-25T18:51:14.168Z,68.08
2023-02-25T18:53:41.380Z,68.44
2023-02-25T18:56:08.679Z,69.71
2023-02-25T18:58:35.178Z,71.52
2023-02-25T19:01:02.104Z,72.17
2023-02-25T19:03:36.313Z,72.68
2023-02-25T19:06:04.288Z,71.66
2023-02-25T19:08:31.143Z,72.31
2023-02-25T19:10:58.087Z,72.31
2023-02-25T19:13:37.103Z,70.60
2023-02-25T19:16:04.895Z,69.59
2023-02-25T19:18:31.524Z,68.86
2023-02-25T19:20:58.105Z,69.92
2023-02-25T19:23:24.641Z,69.71
2023-02-25T19:25:56.942Z,69.90
2023-02-25T19:28:23.629Z,71.22
2023-02-25T19:30:50.319Z,71.82
2023-02-25T19:33:16.958Z,72.20
2023-02-25T19:35:44.063Z,73.35
2023-02-25T19:38:18.961Z,72.95
2023-02-25T19:40:47.531Z,72.46
2023-02-25T19:43:15.142Z,72.71
2023-02-25T19:45:42.127Z,72.75
2023-02-25T19:48:08.938Z,72.88
2023-02-25T19:50:36.912Z,72.82
2023-02-25T19:53:04.409Z,73.71
2023-02-25T19:55:31.581Z,73.84
2023-02-25T19:57:58.094Z,73.88
2023-02-25T20:00:25.686Z,72.99
2023-02-25T20:02:53.718Z,72.42
2023-02-25T20:05:21.539Z,73.20
2023-02-25T20:07:48.240Z,72.71
2023-02-25T20:10:15.701Z,72.09
2023-02-25T20:12:44.435Z,71.57
2023-02-25T20:15:15.046Z,70.42
2023-02-25T20:17:44.262Z,71.04
2023-02-25T20:20:12.240Z,71.14
2023-02-25T20:22:39.588Z,70.55
2023-02-25T20:25:07.957Z,71.67
2023-02-25T20:27:36.928Z,71.42
2023-02-25T20:30:05.060Z,71.77
2023-02-25T20:32:31.798Z,72.20
2023-02-25T20:35:00.600Z,71.42
2023-02-25T20:37:31.555Z,71.24
2023-02-25T20:39:59.436Z,71.10
2023-02-25T20:42:30.817Z,71.78
2023-02-25T20:44:58.783Z,70.11
2023-02-25T20:47:28.501Z,70.78
2023-02-25T20:49:56.643Z,70.59
2023-02-25T20:52:23.401Z,69.76
2023-02-25T20:54:50.029Z,70.17
2023-02-25T20:57:20.337Z,69.06
2023-02-25T20:59:48.224Z,69.08
2023-02-25T21:02:15.828Z,68.93
2023-02-25T21:04:43.785Z,68.74
2023-02-25T21:07:11.239Z,68.92
2023-02-25T21:09:37.815Z,68.65
2023-02-25T21:12:04.767Z,67.02
2023-02-25T21:14:31.363Z,67.72
2023-02-25T21:16:58.455Z,67.55
2023-02-25T21:19:26.475Z,65.32
2023-02-25T21:21:52.997Z,65.93
2023-02-25T21:24:20.170Z,66.75
2023-02-25T21:26:47.238Z,65.86
2023-02-25T21:29:14.609Z,66.65
2023-02-25T21:31:41.656Z,66.62
2023-02-25T21:34:11.578Z,65.42
2023-02-25T21:36:38.553Z,66.43
2023-02-25T21:39:06.802Z,67.53
2023-02-25T21:41:33.466Z,66.16
2023-02-25T21:43:59.961Z,67.76
2023-02-25T21:46:26.703Z,68.94
2023-02-25T21:48:55.718Z,68.82
2023-02-25T21:51:27.498Z,68.13
2023-02-25T21:53:57.733Z,67.67
2023-02-25T21:56:25.649Z,68.34
2023-02-25T21:58:57.073Z,67.63
2023-02-25T22:01:29.607Z,66.38
2023-02-25T22:03:56.948Z,67.24
2023-02-25T22:06:24.757Z,67.95
2023-02-25T22:08:53.322Z,65.77
2023-02-25T22:11:23.039Z,67.15
2023-02-25T22:13:50.736Z,66.42
2023-02-25T22:16:20.634Z,67.58
2023-02-25T22:18:47.231Z,66.71
2023-02-25T22:21:23.440Z,67.06
2023-02-25T22:23:52.069Z,66.92
2023-02-25T22:26:21.688Z,65.97
2023-02-25T22:28:54.276Z,67.67
2023-02-25T22:31:21.819Z,66.16
2023-02-25T22:33:48.453Z,68.56
2023-02-25T22:36:19.510Z,67.01
2023-02-25T22:38:47.595Z,67.23
2023-02-25T22:41:23.127Z,67.91
2023-02-25T22:43:50.349Z,65.34
2023-02-25T22:46:20.098Z,68.10
2023-02-25T22:48:48.256Z,69.42
2023-02-25T22:51:23.333Z,68.50
2023-02-25T22:53:50.060Z,68.11
2023-02-25T22:56:16.939Z,65.08
2023-02-25T22:58:43.787Z,65.40
2023-02-25T23:01:11.906Z,66.13
2023-02-25T23:03:38.764Z,67.32
2023-02-25T23:06:06.453Z,68.25
2023-02-25T23:08:34.233Z,67.92
2023-02-25T23:11:12.863Z,68.16
2023-02-25T23:13:47.322Z,68.76
2023-02-25T23:16:13.987Z,68.85
2023-02-25T23:18:40.839Z,69.62
2023-02-25T23:21:09.197Z,68.37
2023-02-25T23:23:38.350Z,69.97
2023-02-25T23:26:07.397Z,69.51
2023-02-25T23:28:36.842Z,71.51
2023-02-25T23:31:04.419Z,71.05
2023-02-25T23:33:31.593Z,69.83
2023-02-25T23:35:59.026Z,68.94
2023-02-25T23:38:25.645Z,69.48
2023-02-25T23:40:52.210Z,68.33
2023-02-25T23:43:18.802Z,68.77
2023-02-25T23:45:47.070Z,71.02
2023-02-25T23:48:15.484Z,69.79
2023-02-25T23:50:42.040Z,69.61
2023-02-25T23:53:08.595Z,71.06
2023-02-25T23:55:35.740Z,70.49
2023-02-25T23:58:03.131Z,70.86
